Aeroporto :
LOGIN :

Iscrizione | Disclaimer

   EN    FR    IT 

 










Sommario :    VFR   VFR Marginale   IFR   IFR Intensivo   IFR Molto Intensivo
Visibilità : 
Base nubi : 
>= 8 km
>= 3000ft
5 / 8 km
1000 / 3000 ft
1500m / 5 km
500 / 1000 ft
800 / 1500m
200 / 500 ft
< 800m
< 200 ft
Simboli :   Temporali  Nebbia  Neve Forte  Precipitazioni Forti  Vento > 20 kt
SIGMETs :   Varie  Temporali  Ghiacco  Turbolenza  Onda orograficha  Ceneri Vulcaniche






- Altitudine del aeroporto : 158 ft
- Codice IATA : QAR


EHDL - Deelen Airbase

ULTIMO METAR :
  • 030055Z AUTO 23003KT 200V270 9999 OVC140 14/10 Q1009 BLU

METARs OBSOLETI :
  • 030025Z AUTO 27003KT 210V290 9999 OVC150 15/10 Q1009 BLU
  • 022355Z AUTO 27003KT 220V300 9999 BKN078 OVC083 16/11 Q1010 BLU
  • 022325Z AUTO 27003KT 230V320 9999 BKN075 OVC081 17/11 Q1010 BLU
  • 022255Z AUTO 26005KT 220V300 9999 BKN077 BKN082 OVC160 17/10 Q1010 BLU
  • 022225Z AUTO 26004KT 240V330 9999 OVC160 18/10 Q1011 BLU

Previsioni scadute.



MetMap, La meteo Aeronautica in un colpo d'occhio ! - Copyright ORBIFLY Dicembre 2007 - Disclaimer

ORBIFLY MET'MAP TEAM :

Programmazione e sviluppo : Alexandra Zaïnal
Concezione : Baudouin d'Aumeries
Aiuto per la programmazione : Marc-Olivier Méhu
Supporto tecnico e logistico : Manuel Goepfert
Aiuto per la traduzione : Arnaldo La Scala

Contatto : metmap@orbifly.com




FONTI E CREDITI :

   NOAA